createdAt,value
2019-01-19T00:00:03.521Z,1.60
2019-01-19T00:02:30.365Z,1.80
2019-01-19T00:04:56.877Z,2.40
2019-01-19T00:07:23.434Z,1.93
2019-01-19T00:09:49.968Z,1.90
2019-01-19T00:12:16.808Z,2.00
2019-01-19T00:14:43.343Z,2.03
2019-01-19T00:17:09.884Z,1.77
2019-01-19T00:19:36.412Z,1.70
2019-01-19T00:22:02.947Z,2.23
2019-01-19T00:24:29.788Z,2.00
2019-01-19T00:26:56.324Z,1.80
2019-01-19T00:29:23.165Z,2.50
2019-01-19T00:31:49.702Z,1.90
2019-01-19T00:34:16.233Z,2.27
2019-01-19T00:36:43.063Z,2.00
2019-01-19T00:39:09.609Z,1.67
2019-01-19T00:41:36.145Z,1.67
2019-01-19T00:44:02.679Z,2.00
2019-01-19T00:46:29.521Z,2.10
2019-01-19T00:48:56.354Z,2.00
2019-01-19T00:51:23.206Z,1.90
2019-01-19T00:53:49.746Z,1.87
2019-01-19T00:56:16.580Z,2.23
2019-01-19T00:58:43.114Z,2.30
2019-01-19T01:01:09.957Z,1.83
2019-01-19T01:03:36.511Z,2.03
2019-01-19T01:06:03.335Z,2.23
2019-01-19T01:08:30.179Z,2.40
2019-01-19T01:10:57.018Z,2.40
2019-01-19T01:13:23.554Z,3.00
2019-01-19T01:15:50.394Z,2.63
2019-01-19T01:18:16.929Z,2.57
2019-01-19T01:20:43.768Z,2.80
2019-01-19T01:23:10.304Z,2.70
2019-01-19T01:25:37.145Z,2.50
2019-01-19T01:28:03.679Z,2.70
2019-01-19T01:30:30.218Z,2.63
2019-01-19T01:32:56.750Z,3.77
2019-01-19T01:35:23.285Z,3.10
2019-01-19T01:37:50.125Z,3.23
2019-01-19T01:40:16.662Z,2.90
2019-01-19T01:42:43.500Z,3.13
2019-01-19T01:45:10.035Z,3.47
2019-01-19T01:47:36.572Z,3.60
2019-01-19T01:50:03.105Z,3.50
2019-01-19T01:52:29.946Z,3.27
2019-01-19T01:54:56.787Z,3.47
2019-01-19T01:57:23.323Z,3.53
2019-01-19T01:59:49.857Z,3.83
2019-01-19T02:02:16.699Z,3.80
2019-01-19T02:04:43.543Z,3.20
2019-01-19T02:07:10.067Z,3.40
2019-01-19T02:09:36.916Z,3.40
2019-01-19T02:12:03.450Z,3.97
2019-01-19T02:14:30.295Z,3.50
2019-01-19T02:16:57.133Z,3.10
2019-01-19T02:19:23.672Z,3.13
2019-01-19T02:21:50.207Z,3.50
2019-01-19T02:24:17.045Z,3.30
2019-01-19T02:26:43.581Z,2.80
2019-01-19T02:29:10.114Z,3.30
2019-01-19T02:31:36.957Z,2.67
2019-01-19T02:34:03.495Z,2.70
2019-01-19T02:36:30.030Z,2.70
2019-01-19T02:38:57.162Z,3.00
2019-01-19T02:41:23.709Z,2.60
2019-01-19T02:43:50.253Z,2.70
2019-01-19T02:46:17.087Z,2.63
2019-01-19T02:48:43.621Z,2.53
2019-01-19T02:51:10.129Z,2.33
2019-01-19T02:53:37.000Z,2.60
2019-01-19T02:56:03.545Z,2.43
2019-01-19T02:58:30.374Z,2.37
2019-01-19T03:00:57.222Z,2.60
2019-01-19T03:03:23.760Z,2.60
2019-01-19T03:05:56.090Z,2.33
2019-01-19T03:08:18.661Z,2.17
2019-01-19T03:10:45.195Z,2.23
2019-01-19T03:13:12.041Z,2.37
2019-01-19T03:15:38.572Z,2.47
2019-01-19T03:18:05.412Z,2.10
2019-01-19T03:20:31.946Z,2.20
2019-01-19T03:22:58.458Z,2.30
2019-01-19T03:25:25.018Z,2.27
2019-01-19T03:27:51.499Z,2.10
2019-01-19T03:30:18.398Z,1.90
2019-01-19T03:32:44.938Z,2.43
2019-01-19T03:35:11.770Z,2.53
2019-01-19T03:37:38.310Z,2.13
2019-01-19T03:40:04.840Z,2.13
2019-01-19T03:42:31.683Z,2.60
2019-01-19T03:44:58.220Z,2.27
2019-01-19T03:47:24.748Z,2.43
2019-01-19T03:49:51.592Z,2.60
2019-01-19T03:52:18.125Z,2.60
2019-01-19T03:54:44.663Z,1.90
2019-01-19T03:57:11.504Z,2.50
2019-01-19T03:59:38.344Z,2.70
2019-01-19T04:02:04.877Z,2.00
2019-01-19T04:04:31.725Z,2.30
2019-01-19T04:06:58.254Z,2.60
2019-01-19T04:09:24.793Z,2.57
2019-01-19T04:11:51.324Z,2.50
2019-01-19T04:14:17.857Z,2.87
2019-01-19T04:16:44.702Z,2.50
2019-01-19T04:19:11.546Z,2.57
2019-01-19T04:21:38.382Z,2.60
2019-01-19T04:24:04.917Z,2.43
2019-01-19T04:26:31.452Z,2.30
2019-01-19T04:28:57.987Z,2.40
2019-01-19T04:31:24.828Z,2.43
2019-01-19T04:33:51.374Z,2.80
2019-01-19T04:36:21.783Z,2.67
2019-01-19T04:38:46.279Z,2.70
2019-01-19T04:41:12.817Z,3.00
2019-01-19T04:43:39.343Z,2.70
2019-01-19T04:46:05.958Z,2.70
2019-01-19T04:48:32.721Z,2.93
2019-01-19T04:50:59.254Z,2.63
2019-01-19T04:53:26.097Z,2.90
2019-01-19T04:55:52.632Z,2.57
2019-01-19T04:58:19.165Z,2.80
2019-01-19T05:00:45.701Z,3.17
2019-01-19T05:03:12.235Z,3.17
2019-01-19T05:05:38.768Z,3.30
2019-01-19T05:08:05.303Z,3.53
2019-01-19T05:10:32.144Z,3.70
2019-01-19T05:12:58.680Z,3.27
2019-01-19T05:15:25.217Z,3.20
2019-01-19T05:17:51.749Z,3.30
2019-01-19T05:20:18.283Z,3.20
2019-01-19T05:22:44.830Z,3.00
2019-01-19T05:25:11.353Z,3.30
2019-01-19T05:27:37.888Z,3.90
2019-01-19T05:30:04.423Z,4.23
2019-01-19T05:32:30.955Z,3.10
2019-01-19T05:34:57.801Z,4.00
2019-01-19T05:37:24.336Z,3.77
2019-01-19T05:39:50.876Z,3.43
2019-01-19T05:42:17.399Z,3.83
2019-01-19T05:44:44.878Z,3.60
2019-01-19T05:47:11.701Z,3.30
2019-01-19T05:49:38.235Z,4.53
2019-01-19T05:52:04.769Z,3.90
2019-01-19T05:54:31.656Z,4.13
2019-01-19T05:56:58.454Z,3.67
2019-01-19T05:59:24.990Z,4.27
2019-01-19T06:01:51.519Z,4.00
2019-01-19T06:04:18.366Z,4.50
2019-01-19T06:06:46.950Z,3.97
2019-01-19T06:09:13.273Z,3.30
2019-01-19T06:11:39.808Z,3.13
2019-01-19T06:14:06.346Z,3.37
2019-01-19T06:16:33.189Z,4.57
2019-01-19T06:18:59.720Z,4.00
2019-01-19T06:21:26.563Z,3.37
2019-01-19T06:23:53.096Z,4.37
2019-01-19T06:26:19.936Z,4.17
2019-01-19T06:28:46.778Z,3.90
2019-01-19T06:31:13.620Z,3.97
2019-01-19T06:33:40.154Z,4.17
2019-01-19T06:36:06.689Z,3.73
2019-01-19T06:38:33.226Z,4.23
2019-01-19T06:40:59.798Z,4.33
2019-01-19T06:43:26.599Z,3.23
2019-01-19T06:45:53.135Z,4.10
2019-01-19T06:48:19.669Z,3.90
2019-01-19T06:50:46.204Z,4.60
2019-01-19T06:53:12.738Z,3.63
2019-01-19T06:55:39.272Z,3.90
2019-01-19T06:58:05.813Z,4.07
2019-01-19T07:00:32.647Z,3.83
2019-01-19T07:02:59.493Z,4.63
2019-01-19T07:05:26.030Z,4.33
2019-01-19T07:07:52.568Z,4.47
2019-01-19T07:10:19.403Z,4.80
2019-01-19T07:12:46.245Z,4.00
2019-01-19T07:15:12.781Z,4.17
2019-01-19T07:17:39.314Z,4.37
2019-01-19T07:20:05.848Z,3.90
2019-01-19T07:22:32.381Z,4.63
2019-01-19T07:24:58.918Z,4.17
2019-01-19T07:27:25.427Z,5.27
2019-01-19T07:29:51.987Z,5.27
2019-01-19T07:32:18.518Z,5.23
2019-01-19T07:34:45.052Z,4.03
2019-01-19T07:37:11.899Z,4.90
2019-01-19T07:39:38.432Z,5.40
2019-01-19T07:42:05.274Z,4.53
2019-01-19T07:44:31.806Z,4.63
2019-01-19T07:46:58.340Z,5.77
2019-01-19T07:49:25.184Z,4.90
2019-01-19T07:51:51.716Z,5.57
2019-01-19T07:54:18.557Z,4.57
2019-01-19T07:56:45.097Z,5.00
2019-01-19T07:59:11.627Z,5.03
2019-01-19T08:01:38.302Z,6.73
2019-01-19T08:04:05.005Z,6.20
2019-01-19T08:06:31.845Z,6.00
2019-01-19T08:08:58.381Z,6.10
2019-01-19T08:11:25.220Z,5.83
2019-01-19T08:13:51.755Z,6.10
2019-01-19T08:16:18.293Z,6.27
2019-01-19T08:18:45.132Z,5.53
2019-01-19T08:21:11.672Z,5.13
2019-01-19T08:23:38.201Z,5.43
2019-01-19T08:26:05.046Z,4.80
2019-01-19T08:28:31.887Z,5.07
2019-01-19T08:30:58.521Z,4.40
2019-01-19T08:33:25.260Z,4.30
2019-01-19T08:35:52.108Z,4.30
2019-01-19T08:38:18.943Z,4.40
2019-01-19T08:40:45.478Z,4.63
2019-01-19T08:43:12.012Z,5.10
2019-01-19T08:45:38.857Z,4.53
2019-01-19T08:48:05.697Z,5.17
2019-01-19T08:50:32.233Z,4.27
2019-01-19T08:52:59.073Z,4.57
2019-01-19T08:55:25.923Z,4.50
2019-01-19T08:57:52.760Z,4.37
2019-01-19T09:00:19.290Z,4.17
2019-01-19T09:02:45.828Z,4.40
2019-01-19T09:05:12.669Z,4.23
2019-01-19T09:07:39.206Z,4.20
2019-01-19T09:10:06.043Z,4.80
2019-01-19T09:12:32.883Z,4.10
2019-01-19T09:14:59.726Z,4.30
2019-01-19T09:17:26.592Z,4.23
2019-01-19T09:19:53.106Z,4.83
2019-01-19T09:22:19.640Z,4.47
2019-01-19T09:24:46.174Z,4.83
2019-01-19T09:27:13.013Z,3.97
2019-01-19T09:29:40.315Z,4.40
2019-01-19T09:32:07.003Z,4.50
2019-01-19T09:34:34.137Z,3.93
2019-01-19T09:37:00.997Z,4.30
2019-01-19T09:39:27.529Z,4.13
2019-01-19T09:41:54.380Z,4.30
2019-01-19T09:44:21.007Z,4.10
2019-01-19T09:46:47.531Z,4.60
2019-01-19T09:49:14.164Z,4.23
2019-01-19T09:51:40.816Z,4.40
2019-01-19T09:54:07.657Z,4.07
2019-01-19T09:56:34.194Z,3.77
2019-01-19T09:59:00.727Z,4.53
2019-01-19T10:01:27.263Z,4.17
2019-01-19T10:03:53.797Z,3.50
2019-01-19T10:06:20.650Z,3.47
2019-01-19T10:08:47.267Z,3.90
2019-01-19T10:11:14.014Z,4.10
2019-01-19T10:13:40.858Z,4.13
2019-01-19T10:16:07.846Z,3.63
2019-01-19T10:18:34.540Z,3.80
2019-01-19T10:21:01.073Z,3.43
2019-01-19T10:23:27.585Z,3.50
2019-01-19T10:25:54.166Z,3.43
2019-01-19T10:28:20.687Z,3.47
2019-01-19T10:30:47.187Z,2.93
2019-01-19T10:33:14.052Z,2.90
2019-01-19T10:35:40.636Z,3.37
2019-01-19T10:38:07.428Z,2.90
2019-01-19T10:40:33.963Z,3.27
2019-01-19T10:43:00.805Z,2.97
2019-01-19T10:45:27.341Z,3.07
2019-01-19T10:47:54.181Z,2.93
2019-01-19T10:50:20.715Z,2.80
2019-01-19T10:52:47.250Z,2.80
2019-01-19T10:55:14.092Z,2.90
2019-01-19T10:57:40.625Z,2.70
2019-01-19T11:00:07.470Z,2.50
2019-01-19T11:02:34.340Z,2.70
2019-01-19T11:05:01.159Z,3.10
2019-01-19T11:07:28.008Z,2.53
2019-01-19T11:09:54.935Z,2.50
2019-01-19T11:12:21.676Z,2.83
2019-01-19T11:14:48.211Z,2.43
2019-01-19T11:17:14.746Z,2.77
2019-01-19T11:19:41.287Z,2.63
2019-01-19T11:22:07.814Z,2.70
2019-01-19T11:24:34.356Z,2.90
2019-01-19T11:27:00.887Z,2.60
2019-01-19T11:29:27.418Z,2.90
2019-01-19T11:31:54.259Z,2.47
2019-01-19T11:34:20.796Z,3.10
2019-01-19T11:36:47.330Z,2.83
2019-01-19T11:39:14.170Z,2.60
2019-01-19T11:41:40.762Z,2.70
2019-01-19T11:44:07.550Z,2.40
2019-01-19T11:46:34.057Z,2.60
2019-01-19T11:49:00.615Z,2.20
2019-01-19T11:51:27.154Z,2.60
2019-01-19T11:53:53.687Z,2.80
2019-01-19T11:56:20.535Z,2.27
2019-01-19T11:58:47.068Z,2.37
2019-01-19T12:01:13.903Z,2.40
2019-01-19T12:03:40.803Z,2.60
2019-01-19T12:06:07.589Z,2.20
2019-01-19T12:08:35.043Z,2.60
2019-01-19T12:11:01.579Z,2.50
2019-01-19T12:13:28.111Z,2.80
2019-01-19T12:15:54.646Z,2.60
2019-01-19T12:18:21.181Z,2.70
2019-01-19T12:20:48.024Z,2.50
2019-01-19T12:23:14.936Z,2.80
2019-01-19T12:25:41.707Z,2.73
2019-01-19T12:28:08.242Z,2.80
2019-01-19T12:30:34.777Z,2.20
2019-01-19T12:33:01.653Z,2.37
2019-01-19T12:35:29.801Z,2.60
2019-01-19T12:37:56.530Z,2.53
2019-01-19T12:40:23.085Z,2.30
2019-01-19T12:42:50.934Z,2.03
2019-01-19T12:45:17.974Z,2.80
2019-01-19T12:47:44.509Z,2.50
2019-01-19T12:50:11.121Z,2.77
2019-01-19T12:52:37.884Z,2.70
2019-01-19T12:55:04.432Z,2.67
2019-01-19T12:57:31.264Z,2.50
2019-01-19T12:59:59.215Z,2.70
2019-01-19T13:02:26.174Z,2.40
2019-01-19T13:04:52.711Z,2.50
2019-01-19T13:07:19.550Z,2.30
2019-01-19T13:09:46.395Z,2.67
2019-01-19T13:12:13.234Z,2.50
2019-01-19T13:14:39.770Z,2.47
2019-01-19T13:17:06.611Z,2.63
2019-01-19T13:19:33.149Z,2.20
2019-01-19T13:21:59.680Z,2.13
2019-01-19T13:24:26.520Z,2.47
2019-01-19T13:26:53.058Z,2.67
2019-01-19T13:29:19.591Z,2.40
2019-01-19T13:31:46.124Z,2.13
2019-01-19T13:34:12.658Z,2.27
2019-01-19T13:36:39.499Z,2.23
2019-01-19T13:39:06.038Z,2.30
2019-01-19T13:41:32.876Z,2.40
2019-01-19T13:43:59.412Z,2.30
2019-01-19T13:46:25.946Z,2.13
2019-01-19T13:48:52.484Z,2.30
2019-01-19T13:51:19.017Z,2.30
2019-01-19T13:53:45.551Z,2.10
2019-01-19T13:56:12.085Z,2.43
2019-01-19T13:58:38.629Z,2.20
2019-01-19T14:01:05.156Z,1.60
2019-01-19T14:03:31.690Z,2.10
2019-01-19T14:05:58.529Z,2.50
2019-01-19T14:08:25.062Z,2.23
2019-01-19T14:10:51.599Z,2.07
2019-01-19T14:13:18.111Z,2.07
2019-01-19T14:15:44.670Z,1.83
2019-01-19T14:18:11.511Z,2.20
2019-01-19T14:20:38.046Z,2.10
2019-01-19T14:23:04.576Z,2.10
2019-01-19T14:25:31.116Z,2.10
2019-01-19T14:27:57.953Z,1.97
2019-01-19T14:30:24.795Z,2.17
2019-01-19T14:32:51.330Z,2.40
2019-01-19T14:35:17.866Z,2.10
2019-01-19T14:37:44.706Z,2.27
2019-01-19T14:40:11.231Z,2.63
2019-01-19T14:42:38.070Z,2.43
2019-01-19T14:45:04.617Z,2.43
2019-01-19T14:47:31.150Z,2.27
2019-01-19T14:49:58.001Z,2.10
2019-01-19T14:52:24.527Z,2.03
2019-01-19T14:54:51.369Z,2.10
2019-01-19T14:57:17.982Z,2.77
2019-01-19T14:59:44.747Z,2.70
2019-01-19T15:02:11.279Z,2.40
2019-01-19T15:04:37.815Z,2.50
2019-01-19T15:07:04.655Z,2.37
2019-01-19T15:09:31.197Z,2.67
2019-01-19T15:11:57.734Z,3.00
2019-01-19T15:14:24.259Z,2.77
2019-01-19T15:16:50.798Z,2.50
2019-01-19T15:19:17.637Z,2.70
2019-01-19T15:21:44.482Z,2.80
2019-01-19T15:24:11.012Z,3.07
2019-01-19T15:26:37.547Z,2.80
2019-01-19T15:29:04.388Z,3.10
2019-01-19T15:31:30.923Z,3.07
2019-01-19T15:33:57.763Z,3.43
2019-01-19T15:36:24.298Z,3.17
2019-01-19T15:38:50.834Z,3.63
2019-01-19T15:41:17.367Z,3.63
2019-01-19T15:43:43.904Z,3.37
2019-01-19T15:46:10.447Z,4.20
2019-01-19T15:48:37.052Z,4.33
2019-01-19T15:51:03.814Z,3.87
2019-01-19T15:53:30.349Z,3.60
2019-01-19T15:55:57.202Z,3.87
2019-01-19T15:58:23.725Z,3.73
2019-01-19T16:00:50.603Z,4.37
2019-01-19T16:03:17.411Z,3.77
2019-01-19T16:05:43.943Z,4.07
2019-01-19T16:08:10.479Z,4.10
2019-01-19T16:10:37.323Z,3.80
2019-01-19T16:13:04.161Z,4.20
2019-01-19T16:15:31.004Z,4.10
2019-01-19T16:17:57.842Z,4.90
2019-01-19T16:20:24.377Z,3.93
2019-01-19T16:22:51.219Z,4.40
2019-01-19T16:25:17.753Z,4.70
2019-01-19T16:27:44.289Z,4.20
2019-01-19T16:30:10.827Z,4.90
2019-01-19T16:32:37.360Z,3.97
2019-01-19T16:35:03.893Z,4.67
2019-01-19T16:37:30.429Z,4.70
2019-01-19T16:39:56.973Z,4.77
2019-01-19T16:42:23.803Z,5.23
2019-01-19T16:44:50.347Z,4.60
2019-01-19T16:47:16.871Z,4.70
2019-01-19T16:49:43.410Z,4.67
2019-01-19T16:52:09.946Z,4.90
2019-01-19T16:54:36.782Z,5.13
2019-01-19T16:57:03.624Z,5.10
2019-01-19T16:59:30.158Z,5.17
2019-01-19T17:01:56.692Z,4.80
2019-01-19T17:04:23.227Z,5.37
2019-01-19T17:06:50.077Z,5.30
2019-01-19T17:09:16.604Z,5.37
2019-01-19T17:11:43.445Z,5.53
2019-01-19T17:14:09.981Z,5.90
2019-01-19T17:16:36.513Z,5.40
2019-01-19T17:19:03.362Z,5.90
2019-01-19T17:21:29.892Z,6.33
2019-01-19T17:23:56.425Z,6.30
2019-01-19T17:26:22.960Z,6.23
2019-01-19T17:28:49.495Z,7.03
2019-01-19T17:31:16.335Z,7.27
2019-01-19T17:33:42.874Z,6.60
2019-01-19T17:36:09.711Z,7.00
2019-01-19T17:38:36.553Z,7.50
2019-01-19T17:41:03.093Z,7.40
2019-01-19T17:43:29.933Z,7.77
2019-01-19T17:45:56.771Z,8.17
2019-01-19T17:48:23.306Z,8.17
2019-01-19T17:50:50.155Z,8.13
2019-01-19T17:53:16.744Z,9.33
2019-01-19T17:55:43.524Z,10.27
2019-01-19T17:58:10.059Z,9.83
2019-01-19T18:00:36.597Z,10.50
2019-01-19T18:03:03.434Z,10.13
2019-01-19T18:05:29.969Z,10.80
2019-01-19T18:07:56.814Z,10.23
2019-01-19T18:10:23.654Z,12.13
2019-01-19T18:12:50.204Z,12.00
2019-01-19T18:15:16.725Z,13.23
2019-01-19T18:17:43.257Z,12.77
2019-01-19T18:20:10.097Z,14.17
2019-01-19T18:22:36.633Z,14.17
2019-01-19T18:25:03.169Z,13.73
2019-01-19T18:27:30.012Z,13.77
2019-01-19T18:29:56.545Z,14.07
2019-01-19T18:32:23.390Z,13.60
2019-01-19T18:34:49.919Z,14.17
2019-01-19T18:37:16.465Z,14.23
2019-01-19T18:39:42.987Z,16.00
2019-01-19T18:42:09.836Z,15.73
2019-01-19T18:44:37.014Z,15.03
2019-01-19T18:47:03.852Z,15.97
2019-01-19T18:49:30.678Z,15.87
2019-01-19T18:51:57.510Z,15.97
2019-01-19T18:54:24.354Z,17.63
2019-01-19T18:56:51.188Z,16.43
2019-01-19T18:59:17.728Z,16.57
2019-01-19T19:01:44.259Z,18.27
2019-01-19T19:04:11.100Z,16.97
2019-01-19T19:06:37.941Z,17.77
2019-01-19T19:09:04.782Z,17.93
2019-01-19T19:11:31.316Z,17.33
2019-01-19T19:13:57.857Z,17.73
2019-01-19T19:16:24.696Z,17.63
2019-01-19T19:18:51.533Z,17.47
2019-01-19T19:21:18.378Z,18.57
2019-01-19T19:23:45.217Z,18.53
2019-01-19T19:26:11.752Z,18.13
2019-01-19T19:28:38.286Z,19.00
2019-01-19T19:31:05.137Z,19.53
2019-01-19T19:33:31.969Z,18.73
2019-01-19T19:35:58.507Z,21.03
2019-01-19T19:38:25.046Z,19.87
2019-01-19T19:40:51.883Z,21.13
2019-01-19T19:43:18.418Z,19.23
2019-01-19T19:45:45.258Z,20.00
2019-01-19T19:48:11.790Z,20.27
2019-01-19T19:50:38.633Z,21.50
2019-01-19T19:53:05.176Z,20.57
2019-01-19T19:55:31.706Z,19.90
2019-01-19T19:57:58.544Z,20.07
2019-01-19T20:00:25.080Z,21.10
2019-01-19T20:02:51.922Z,18.37
2019-01-19T20:05:18.454Z,19.60
2019-01-19T20:07:45.296Z,19.20
2019-01-19T20:10:17.007Z,19.80
2019-01-19T20:12:40.209Z,19.73
2019-01-19T20:15:06.743Z,20.43
2019-01-19T20:17:33.281Z,19.53
2019-01-19T20:19:59.813Z,20.90
2019-01-19T20:22:28.503Z,20.10
2019-01-19T20:24:55.339Z,21.13
2019-01-19T20:27:22.180Z,20.40
2019-01-19T20:29:48.740Z,20.77
2019-01-19T20:32:15.622Z,20.43
2019-01-19T20:34:42.398Z,20.07
2019-01-19T20:37:08.933Z,19.80
2019-01-19T20:39:35.466Z,22.27
2019-01-19T20:42:02.003Z,22.30
2019-01-19T20:44:28.848Z,21.47
2019-01-19T20:46:55.377Z,21.60
2019-01-19T20:49:22.220Z,20.20
2019-01-19T20:51:48.754Z,21.43
2019-01-19T20:54:15.595Z,20.63
2019-01-19T20:56:42.439Z,20.63
2019-01-19T20:59:08.985Z,21.37
2019-01-19T21:01:35.507Z,21.53
2019-01-19T21:04:02.041Z,21.10
2019-01-19T21:06:28.883Z,20.33
2019-01-19T21:08:55.724Z,21.80
2019-01-19T21:11:22.566Z,21.30
2019-01-19T21:13:49.102Z,20.73
2019-01-19T21:16:15.635Z,20.50
2019-01-19T21:18:42.478Z,20.30
2019-01-19T21:21:09.318Z,20.17
2019-01-19T21:23:36.160Z,21.07
2019-01-19T21:26:03.002Z,20.27
2019-01-19T21:28:29.844Z,20.07
2019-01-19T21:30:56.380Z,20.43
2019-01-19T21:33:23.219Z,20.43
2019-01-19T21:35:50.070Z,19.33
2019-01-19T21:38:16.907Z,20.30
2019-01-19T21:40:43.444Z,19.93
2019-01-19T21:43:10.280Z,21.13
2019-01-19T21:45:37.120Z,19.20
2019-01-19T21:48:03.661Z,19.63
2019-01-19T21:50:30.499Z,19.00
2019-01-19T21:52:57.032Z,19.63
2019-01-19T21:55:23.569Z,20.60
2019-01-19T21:57:50.410Z,19.53
2019-01-19T22:00:17.250Z,20.83
2019-01-19T22:02:44.092Z,19.43
2019-01-19T22:05:10.935Z,19.87
2019-01-19T22:07:37.775Z,18.53
2019-01-19T22:10:04.312Z,18.50
2019-01-19T22:12:31.151Z,20.30
2019-01-19T22:14:57.998Z,19.77
2019-01-19T22:17:24.576Z,19.53
2019-01-19T22:19:51.374Z,20.00
2019-01-19T22:22:17.914Z,19.83
2019-01-19T22:24:44.746Z,21.50
2019-01-19T22:27:11.606Z,20.37
2019-01-19T22:29:38.430Z,20.37
2019-01-19T22:32:04.965Z,19.80
2019-01-19T22:34:31.804Z,19.53
2019-01-19T22:36:58.355Z,20.40
2019-01-19T22:39:25.520Z,20.17
2019-01-19T22:41:52.558Z,20.20
2019-01-19T22:44:19.175Z,20.93
2019-01-19T22:46:45.708Z,20.37
2019-01-19T22:49:12.241Z,20.47
2019-01-19T22:51:39.083Z,18.37
2019-01-19T22:54:05.927Z,19.93
2019-01-19T22:56:32.465Z,18.93
2019-01-19T22:58:59.066Z,19.40
2019-01-19T23:01:25.835Z,19.80
2019-01-19T23:03:52.676Z,19.23
2019-01-19T23:06:19.519Z,20.30
2019-01-19T23:08:46.052Z,20.57
2019-01-19T23:11:12.894Z,21.27
2019-01-19T23:13:39.433Z,20.47
2019-01-19T23:16:06.273Z,19.67
2019-01-19T23:18:32.806Z,20.37
2019-01-19T23:20:59.340Z,22.40
2019-01-19T23:23:25.875Z,21.57
2019-01-19T23:25:52.715Z,21.10
2019-01-19T23:28:19.557Z,21.53
2019-01-19T23:30:46.399Z,22.57
2019-01-19T23:33:12.933Z,19.57
2019-01-19T23:35:39.570Z,21.70
2019-01-19T23:38:06.371Z,20.27
2019-01-19T23:40:33.151Z,22.23
2019-01-19T23:42:59.999Z,21.60
2019-01-19T23:45:26.529Z,21.63
2019-01-19T23:47:53.370Z,21.73
2019-01-19T23:50:19.912Z,20.67
2019-01-19T23:52:46.748Z,21.60
2019-01-19T23:55:13.280Z,21.17
2019-01-19T23:57:39.817Z,21.57
